createdAt,value
2022-08-03T00:01:32.714Z,96192.03
2022-08-03T00:04:00.123Z,96201.44
2022-08-03T00:06:31.687Z,96198.53
2022-08-03T00:09:08.871Z,96197.09
2022-08-03T00:11:36.325Z,96202.69
2022-08-03T00:14:07.397Z,96194.19
2022-08-03T00:16:34.364Z,96198.91
2022-08-03T00:19:02.297Z,96189.84
2022-08-03T00:21:28.929Z,96195.44
2022-08-03T00:23:55.737Z,96197.25
2022-08-03T00:26:22.545Z,96201.41
2022-08-03T00:28:52.958Z,96197.78
2022-08-03T00:31:51.571Z,96195.06
2022-08-03T00:34:15.854Z,96193.22
2022-08-03T00:36:42.899Z,96196.28
2022-08-03T00:39:13.407Z,96194.84
2022-08-03T00:41:47.370Z,96194.13
2022-08-03T00:44:14.744Z,96192.69
2022-08-03T00:46:43.667Z,96190.50
2022-08-03T00:49:10.578Z,96196.28
2022-08-03T00:51:37.133Z,96189.78
2022-08-03T00:54:06.144Z,96196.13
2022-08-03T00:56:39.852Z,96192.81
2022-08-03T00:59:26.490Z,96191.19
2022-08-03T01:02:00.518Z,96199.34
2022-08-03T01:04:27.385Z,96193.38
2022-08-03T01:06:53.910Z,96198.81
2022-08-03T01:09:20.504Z,96190.28
2022-08-03T01:12:00.188Z,96194.78
2022-08-03T01:14:28.562Z,96201.16
2022-08-03T01:16:55.108Z,96192.81
2022-08-03T01:19:21.960Z,96188.44
2022-08-03T01:21:48.721Z,96186.09
2022-08-03T01:24:16.338Z,96187.34
2022-08-03T01:26:43.832Z,96188.63
2022-08-03T01:29:11.165Z,96187.31
2022-08-03T01:32:53.268Z,96191.47
2022-08-03T01:34:25.349Z,96194.72
2022-08-03T01:36:52.059Z,96190.66
2022-08-03T01:39:20.510Z,96188.97
2022-08-03T01:41:47.426Z,96190.50
2022-08-03T01:44:29.602Z,96177.09
2022-08-03T01:47:01.051Z,96188.75
2022-08-03T01:49:27.722Z,96187.38
2022-08-03T01:52:03.860Z,96184.47
2022-08-03T01:54:31.937Z,96188.63
2022-08-03T01:56:58.852Z,96188.13
2022-08-03T01:59:25.714Z,96181.41
2022-08-03T02:02:28.361Z,96185.53
2022-08-03T02:04:43.578Z,96182.28
2022-08-03T02:07:10.477Z,96180.09
2022-08-03T02:09:37.033Z,96182.75
2022-08-03T02:12:04.381Z,96184.03
2022-08-03T02:14:30.954Z,96182.03
2022-08-03T02:16:58.529Z,96191.09
2022-08-03T02:19:25.472Z,96182.91
2022-08-03T02:21:56.949Z,96186.81
2022-08-03T02:24:27.828Z,96183.72
2022-08-03T02:26:54.483Z,96195.09
2022-08-03T02:29:21.421Z,96186.09
2022-08-03T02:32:07.717Z,96186.81
2022-08-03T02:34:36.841Z,96189.72
2022-08-03T02:37:03.448Z,96184.63
2022-08-03T02:39:31.419Z,96192.03
2022-08-03T02:41:58.732Z,96182.13
2022-08-03T02:44:25.618Z,96182.84
2022-08-03T02:46:52.217Z,96179.94
2022-08-03T02:49:42.709Z,96184.97
2022-08-03T02:52:06.315Z,96176.59
2022-08-03T02:54:40.046Z,96183.31
2022-08-03T02:57:07.511Z,96178.97
2022-08-03T02:59:34.362Z,96181.69
2022-08-03T03:02:03.037Z,96186.00
2022-08-03T03:04:33.800Z,96186.16
2022-08-03T03:07:01.825Z,96181.97
2022-08-03T03:09:40.120Z,96180.84
2022-08-03T03:12:07.282Z,96193.69
2022-08-03T03:14:34.252Z,96187.16
2022-08-03T03:17:00.826Z,96184.44
2022-08-03T03:19:28.409Z,96188.53
2022-08-03T03:21:55.077Z,96194.50
2022-08-03T03:24:21.633Z,96186.56
2022-08-03T03:26:48.195Z,96189.47
2022-08-03T03:29:18.459Z,96197.06
2022-08-03T03:31:45.726Z,96194.88
2022-08-03T03:34:12.695Z,96199.97
2022-08-03T03:36:39.437Z,96194.88
2022-08-03T03:39:15.676Z,96196.16
2022-08-03T03:41:46.708Z,96201.38
2022-08-03T03:44:16.252Z,96203.69
2022-08-03T03:46:43.232Z,96196.19
2022-08-03T03:49:09.917Z,96200.88
2022-08-03T03:51:38.753Z,96197.34
2022-08-03T03:54:06.172Z,96199.97
2022-08-03T03:56:33.052Z,96202.03
2022-08-03T03:59:02.812Z,96198.81
2022-08-03T04:01:30.206Z,96204.41
2022-08-03T04:04:00.341Z,96202.25
2022-08-03T04:06:27.222Z,96201.59
2022-08-03T04:08:53.791Z,96207.84
2022-08-03T04:11:20.687Z,96207.03
2022-08-03T04:14:03.476Z,96205.56
2022-08-03T04:16:30.365Z,96205.78
2022-08-03T04:18:57.741Z,96207.13
2022-08-03T04:21:24.417Z,96212.00
2022-08-03T04:23:51.897Z,96208.34
2022-08-03T04:26:19.462Z,96209.81
2022-08-03T04:28:46.441Z,96204.72
2022-08-03T04:31:13.363Z,96208.56
2022-08-03T04:33:40.142Z,96209.81
2022-08-03T04:36:06.859Z,96208.22
2022-08-03T04:38:34.266Z,96216.47
2022-08-03T04:41:00.926Z,96211.06
2022-08-03T04:43:27.647Z,96212.97
2022-08-03T04:45:54.468Z,96215.41
2022-08-03T04:48:21.347Z,96216.28
2022-08-03T04:50:48.138Z,96221.38
2022-08-03T04:53:15.506Z,96217.78
2022-08-03T04:55:42.305Z,96218.31
2022-08-03T04:58:09.101Z,96219.97
2022-08-03T05:00:35.982Z,96219.03
2022-08-03T05:03:02.691Z,96221.25
2022-08-03T05:05:34.616Z,96220.00
2022-08-03T05:08:16.541Z,96224.78
2022-08-03T05:10:59.112Z,96223.19
2022-08-03T05:13:26.906Z,96230.84
2022-08-03T05:15:55.507Z,96231.66
2022-08-03T05:18:22.376Z,96241.81
2022-08-03T05:20:48.936Z,96232.13
2022-08-03T05:23:16.457Z,96240.91
2022-08-03T05:25:49.773Z,96242.38
2022-08-03T05:28:18.430Z,96238.25
2022-08-03T05:30:49.010Z,96238.47
2022-08-03T05:33:16.109Z,96234.09
2022-08-03T05:36:01.593Z,96238.59
2022-08-03T05:38:37.775Z,96242.72
2022-08-03T05:41:21.431Z,96245.78
2022-08-03T05:46:32.814Z,96242.94
2022-08-03T05:48:59.581Z,96250.38
2022-08-03T05:51:33.430Z,96246.50
2022-08-03T05:54:01.347Z,96249.69
2022-08-03T05:56:27.964Z,96241.28
2022-08-03T05:58:56.743Z,96252.44
2022-08-03T06:01:23.384Z,96246.53
2022-08-03T06:03:49.956Z,96245.78
2022-08-03T06:06:19.373Z,96244.53
2022-08-03T06:08:45.942Z,96247.34
2022-08-03T06:11:15.237Z,96247.47
2022-08-03T06:13:42.221Z,96246.25
2022-08-03T06:16:08.854Z,96249.53
2022-08-03T06:18:35.554Z,96249.22
2022-08-03T06:21:14.552Z,96246.81
2022-08-03T06:23:54.212Z,96239.66
2022-08-03T06:26:22.582Z,96244.84
2022-08-03T06:28:52.264Z,96243.22
2022-08-03T06:31:20.831Z,96256.53
2022-08-03T06:33:48.353Z,96252.59
2022-08-03T06:36:34.477Z,96252.75
2022-08-03T06:39:02.030Z,96260.63
2022-08-03T06:41:37.558Z,96263.94
2022-08-03T06:44:05.329Z,96271.78
2022-08-03T06:46:34.599Z,96272.34
2022-08-03T06:49:02.118Z,96271.47
2022-08-03T06:52:03.377Z,96273.69
2022-08-03T06:54:19.372Z,96273.38
2022-08-03T06:56:49.016Z,96276.13
2022-08-03T07:00:08.644Z,96275.00
2022-08-03T07:02:02.164Z,96283.81
2022-08-03T07:04:29.119Z,96281.81
2022-08-03T07:06:55.773Z,96283.50
2022-08-03T07:09:22.597Z,96286.16
2022-08-03T07:11:49.276Z,96288.75
2022-08-03T07:14:15.991Z,96284.41
2022-08-03T07:19:33.181Z,96297.38
2022-08-03T07:22:02.077Z,96298.69
2022-08-03T07:24:30.869Z,96297.88
2022-08-03T07:26:57.591Z,96299.50
2022-08-03T07:29:24.647Z,96297.56
2022-08-03T07:31:51.235Z,96303.34
2022-08-03T07:34:21.101Z,96300.38
2022-08-03T07:36:48.148Z,96299.25
2022-08-03T07:39:18.005Z,96297.41
2022-08-03T07:41:44.906Z,96303.13
2022-08-03T07:44:11.579Z,96305.34
2022-08-03T07:46:39.892Z,96297.50
2022-08-03T07:49:06.741Z,96302.03
2022-08-03T07:51:33.756Z,96300.13
2022-08-03T07:54:02.163Z,96299.00
2022-08-03T07:56:29.014Z,96303.81
2022-08-03T07:58:55.895Z,96300.75
2022-08-03T08:01:22.749Z,96290.88
2022-08-03T08:03:52.680Z,96294.63
2022-08-03T08:06:20.020Z,96295.13
2022-08-03T08:11:29.431Z,96293.06
2022-08-03T08:13:56.783Z,96293.84
2022-08-03T08:16:23.405Z,96300.47
2022-08-03T08:18:50.022Z,96290.91
2022-08-03T08:21:16.813Z,96288.44
2022-08-03T08:23:47.092Z,96296.84
2022-08-03T08:26:23.638Z,96291.28
2022-08-03T08:28:50.476Z,96292.78
2022-08-03T08:31:17.392Z,96296.63
2022-08-03T08:36:31.365Z,96290.13
2022-08-03T08:38:58.173Z,96288.91
2022-08-03T08:41:24.789Z,96290.84
2022-08-03T08:44:00.210Z,96284.69
2022-08-03T08:46:27.200Z,96287.06
2022-08-03T08:48:55.909Z,96293.44
2022-08-03T08:51:25.138Z,96291.41
2022-08-03T08:54:14.604Z,96282.34
2022-08-03T08:56:41.518Z,96285.06
2022-08-03T08:59:10.769Z,96283.63
2022-08-03T09:01:38.474Z,96290.19
2022-08-03T09:04:05.284Z,96288.75
2022-08-03T09:06:32.930Z,96286.34
2022-08-03T09:08:59.452Z,96285.44
2022-08-03T09:11:53.345Z,96284.56
2022-08-03T09:14:36.727Z,96289.34
2022-08-03T09:17:03.177Z,96291.34
2022-08-03T09:19:29.842Z,96291.13
2022-08-03T09:22:00.153Z,96289.84
2022-08-03T09:24:41.204Z,96288.41
2022-08-03T09:27:13.301Z,96289.69
2022-08-03T09:29:41.272Z,96283.84
2022-08-03T09:32:08.215Z,96290.75
2022-08-03T09:34:35.073Z,96293.63
2022-08-03T09:37:01.843Z,96291.25
2022-08-03T09:39:41.660Z,96291.41
2022-08-03T09:42:14.695Z,96293.75
2022-08-03T09:44:42.052Z,96289.16
2022-08-03T09:47:08.672Z,96289.75
2022-08-03T09:49:35.750Z,96283.31
2022-08-03T09:54:43.425Z,96280.78
2022-08-03T09:57:11.837Z,96276.38
2022-08-03T09:59:41.072Z,96270.50
2022-08-03T10:02:10.579Z,96273.03
2022-08-03T10:04:37.465Z,96270.47
2022-08-03T10:07:04.457Z,96269.19
2022-08-03T10:09:31.855Z,96263.34
2022-08-03T10:11:58.487Z,96259.50
2022-08-03T10:14:26.014Z,96261.97
2022-08-03T10:16:52.953Z,96253.25
2022-08-03T10:21:59.972Z,96261.34
2022-08-03T10:24:28.148Z,96258.38
2022-08-03T10:26:56.589Z,96268.16
2022-08-03T10:29:23.174Z,96250.56
2022-08-03T10:31:55.875Z,96255.63
2022-08-03T10:34:24.620Z,96251.38
2022-08-03T10:36:51.258Z,96249.22
2022-08-03T10:39:18.163Z,96248.44
2022-08-03T10:41:45.565Z,96244.91
2022-08-03T10:44:12.883Z,96244.34
2022-08-03T10:46:44.499Z,96243.06
2022-08-03T10:49:11.939Z,96247.56
2022-08-03T10:51:39.226Z,96242.41
2022-08-03T10:54:06.629Z,96239.81
2022-08-03T10:56:49.906Z,96253.78
2022-08-03T10:59:27.839Z,96248.50
2022-08-03T11:01:58.904Z,96244.97
2022-08-03T11:04:26.856Z,96236.91
2022-08-03T11:06:54.138Z,96228.88
2022-08-03T11:09:20.880Z,96240.84
2022-08-03T11:11:49.305Z,96238.41
2022-08-03T11:14:16.582Z,96233.41
2022-08-03T11:16:43.535Z,96229.41
2022-08-03T11:19:10.190Z,96232.34
2022-08-03T11:21:38.789Z,96233.06
2022-08-03T11:24:06.909Z,96225.03
2022-08-03T11:26:33.689Z,96227.16
2022-08-03T11:29:00.606Z,96219.56
2022-08-03T11:34:17.556Z,96212.41
2022-08-03T11:36:51.925Z,96209.09
2022-08-03T11:39:28.622Z,96212.88
2022-08-03T11:41:56.791Z,96208.28
2022-08-03T11:44:24.391Z,96210.63
2022-08-03T11:46:51.176Z,96210.31
2022-08-03T11:49:17.930Z,96205.97
2022-08-03T11:51:44.834Z,96200.41
2022-08-03T11:54:11.370Z,96200.19
2022-08-03T11:56:38.316Z,96198.44
2022-08-03T11:59:19.964Z,96199.88
2022-08-03T12:01:48.578Z,96190.22
2022-08-03T12:04:15.281Z,96186.75
2022-08-03T12:06:47.045Z,96189.53
2022-08-03T12:09:15.576Z,96187.09
2022-08-03T12:11:51.062Z,96179.59
2022-08-03T12:14:50.840Z,96177.75
2022-08-03T12:17:13.998Z,96184.38
2022-08-03T12:19:41.009Z,96178.50
2022-08-03T12:22:08.023Z,96175.16
2022-08-03T12:24:34.710Z,96173.16
2022-08-03T12:27:01.626Z,96176.31
2022-08-03T12:29:29.326Z,96174.16
2022-08-03T12:31:56.428Z,96177.34
2022-08-03T12:34:25.054Z,96173.03
2022-08-03T12:36:57.794Z,96158.47
2022-08-03T12:39:24.692Z,96162.09
2022-08-03T12:41:51.372Z,96146.97
2022-08-03T12:44:18.190Z,96155.47
2022-08-03T12:46:47.941Z,96150.44
2022-08-03T12:49:18.519Z,96148.84
2022-08-03T12:51:45.790Z,96148.72
2022-08-03T12:54:12.691Z,96147.41
2022-08-03T12:56:39.397Z,96152.59
2022-08-03T12:59:06.100Z,96146.09
2022-08-03T13:01:33.153Z,96143.78
2022-08-03T13:04:00.167Z,96145.63
2022-08-03T13:06:27.953Z,96134.13
2022-08-03T13:08:54.841Z,96138.00
2022-08-03T13:11:21.543Z,96139.31
2022-08-03T13:13:48.331Z,96141.88
2022-08-03T13:16:19.171Z,96142.59
2022-08-03T13:18:46.319Z,96141.31
2022-08-03T13:21:14.994Z,96141.44
2022-08-03T13:23:41.701Z,96132.22
2022-08-03T13:26:08.581Z,96129.47
2022-08-03T13:28:35.492Z,96130.75
2022-08-03T13:31:02.861Z,96128.75
2022-08-03T13:33:30.614Z,96128.47
2022-08-03T13:35:57.265Z,96122.69
2022-08-03T13:38:26.910Z,96125.44
2022-08-03T13:40:54.095Z,96120.81
2022-08-03T13:43:21.091Z,96120.75
2022-08-03T13:45:52.425Z,96114.72
2022-08-03T13:48:37.349Z,96115.00
2022-08-03T13:51:12.010Z,96110.16
2022-08-03T13:53:49.109Z,96112.75
2022-08-03T13:56:16.734Z,96107.41
2022-08-03T13:58:43.379Z,96103.09
2022-08-03T14:01:10.392Z,96104.22
2022-08-03T14:03:37.074Z,96098.34
2022-08-03T14:06:04.107Z,96093.72
2022-08-03T14:08:30.675Z,96098.81
2022-08-03T14:10:57.692Z,96092.75
2022-08-03T14:13:24.276Z,96093.19
2022-08-03T14:15:52.045Z,96088.25
2022-08-03T14:18:29.307Z,96089.94
2022-08-03T14:21:04.992Z,96083.81
2022-08-03T14:23:32.934Z,96081.00
2022-08-03T14:26:00.027Z,96077.09
2022-08-03T14:28:26.675Z,96073.91
2022-08-03T14:30:53.583Z,96072.00
2022-08-03T14:33:20.551Z,96065.47
2022-08-03T14:35:47.465Z,96055.78
2022-08-03T14:38:14.105Z,96057.97
2022-08-03T14:40:41.504Z,96051.63
2022-08-03T14:43:08.174Z,96054.81
2022-08-03T14:45:42.006Z,96050.66
2022-08-03T14:50:29.293Z,96046.47
2022-08-03T14:50:55.939Z,96047.44
2022-08-03T14:53:22.559Z,96047.91
2022-08-03T14:55:51.572Z,96048.81
2022-08-03T14:58:21.174Z,96044.66
2022-08-03T15:00:49.108Z,96037.06
2022-08-03T15:03:16.736Z,96040.50
2022-08-03T15:05:44.082Z,96041.13
2022-08-03T15:08:11.036Z,96034.78
2022-08-03T15:10:44.331Z,96036.22
2022-08-03T15:13:12.543Z,96028.84
2022-08-03T15:15:40.172Z,96032.75
2022-08-03T15:18:07.533Z,96030.72
2022-08-03T15:20:50.153Z,96031.22
2022-08-03T15:23:18.505Z,96023.00
2022-08-03T15:26:28.200Z,96022.41
2022-08-03T15:28:32.137Z,96028.16
2022-08-03T15:30:58.858Z,96018.97
2022-08-03T15:33:26.302Z,96013.84
2022-08-03T15:35:52.900Z,96011.94
2022-08-03T15:38:19.629Z,96013.38
2022-08-03T15:40:46.575Z,96016.25
2022-08-03T15:43:15.624Z,96013.50
2022-08-03T15:45:42.322Z,96011.22
2022-08-03T15:48:09.202Z,96008.03
2022-08-03T15:50:35.789Z,96006.69
2022-08-03T15:53:07.351Z,96000.59
2022-08-03T15:55:37.041Z,96009.78
2022-08-03T15:59:04.172Z,96005.34
2022-08-03T16:00:51.271Z,96008.09
2022-08-03T16:03:17.969Z,96002.28
2022-08-03T16:05:46.434Z,95996.19
2022-08-03T16:08:13.945Z,95997.25
2022-08-03T16:10:41.015Z,95993.22
2022-08-03T16:13:08.000Z,95988.56
2022-08-03T16:15:38.629Z,95988.66
2022-08-03T16:18:05.708Z,95983.19
2022-08-03T16:20:37.157Z,95988.81
2022-08-03T16:23:10.565Z,95982.16
2022-08-03T16:25:43.203Z,95985.81
2022-08-03T16:28:14.220Z,95986.44
2022-08-03T16:30:41.703Z,95978.94
2022-08-03T16:33:08.287Z,95981.78
2022-08-03T16:35:34.908Z,95976.91
2022-08-03T16:38:04.386Z,95979.66
2022-08-03T16:40:33.506Z,95973.31
2022-08-03T16:43:07.341Z,95975.19
2022-08-03T16:48:27.237Z,95972.81
2022-08-03T16:51:01.179Z,95968.44
2022-08-03T16:53:51.576Z,95968.53
2022-08-03T16:56:15.400Z,95968.28
2022-08-03T16:58:44.397Z,95966.63
2022-08-03T17:01:22.098Z,95965.91
2022-08-03T17:04:01.971Z,95971.63
2022-08-03T17:06:34.464Z,95964.47
2022-08-03T17:09:01.688Z,95965.16
2022-08-03T17:11:30.140Z,95962.31
2022-08-03T17:13:59.905Z,95964.91
2022-08-03T17:16:28.810Z,95971.63
2022-08-03T17:18:55.999Z,95966.59
2022-08-03T17:21:22.967Z,95960.88
2022-08-03T17:23:50.435Z,95961.31
2022-08-03T17:26:21.553Z,95959.75
2022-08-03T17:28:57.333Z,95958.91
2022-08-03T17:31:31.312Z,95970.50
2022-08-03T17:34:04.608Z,95956.63
2022-08-03T17:37:02.101Z,95952.47
2022-08-03T17:39:48.471Z,95951.47
2022-08-03T17:42:31.367Z,95962.66
2022-08-03T17:44:58.802Z,95957.63
2022-08-03T17:47:42.459Z,95961.66
2022-08-03T17:50:24.149Z,95962.56
2022-08-03T17:52:52.758Z,95964.31
2022-08-03T17:55:57.480Z,95964.81
2022-08-03T17:58:08.499Z,95959.81
2022-08-03T18:00:43.310Z,95971.56
2022-08-03T18:03:10.234Z,95964.19
2022-08-03T18:06:10.516Z,95968.38
2022-08-03T18:08:49.805Z,95966.78
2022-08-03T18:11:16.633Z,95968.69
2022-08-03T18:13:43.334Z,95965.09
2022-08-03T18:16:24.747Z,95969.63
2022-08-03T18:18:52.582Z,95975.25
2022-08-03T18:21:19.913Z,95972.38
2022-08-03T18:23:53.815Z,95974.25
2022-08-03T18:26:26.264Z,95972.56
2022-08-03T18:28:54.926Z,95971.59
2022-08-03T18:31:33.047Z,95976.22
2022-08-03T18:34:17.829Z,95978.84
2022-08-03T18:37:51.935Z,95972.94
2022-08-03T18:39:55.859Z,95975.28
2022-08-03T18:42:26.288Z,95979.19
2022-08-03T18:44:56.387Z,95974.16
2022-08-03T18:47:24.276Z,95980.06
2022-08-03T18:49:53.009Z,95973.59
2022-08-03T18:52:20.698Z,95974.63
2022-08-03T18:55:02.932Z,95977.97
2022-08-03T18:57:38.131Z,95975.84
2022-08-03T19:00:05.116Z,95985.22
2022-08-03T19:02:31.736Z,95974.72
2022-08-03T19:04:59.703Z,95981.34
2022-08-03T19:07:26.640Z,95979.75
2022-08-03T19:10:00.595Z,95975.47
2022-08-03T19:12:37.389Z,95978.66
2022-08-03T19:15:10.577Z,95982.94
2022-08-03T19:17:39.274Z,95979.22
2022-08-03T19:20:05.995Z,95986.56
2022-08-03T19:22:45.842Z,95987.00
2022-08-03T19:25:13.208Z,95988.03
2022-08-03T19:27:43.443Z,95993.34
2022-08-03T19:30:21.817Z,95996.81
2022-08-03T19:32:52.995Z,95990.91
2022-08-03T19:35:51.655Z,95999.69
2022-08-03T19:38:06.403Z,96004.31
2022-08-03T19:40:34.969Z,96005.34
2022-08-03T19:43:05.110Z,95997.25
2022-08-03T19:48:19.857Z,96014.81
2022-08-03T19:50:49.277Z,96013.09
2022-08-03T19:53:16.272Z,96005.59
2022-08-03T19:55:48.842Z,96007.47
2022-08-03T19:58:17.513Z,96017.81
2022-08-03T20:00:51.701Z,96016.25
2022-08-03T20:03:22.043Z,96021.72
2022-08-03T20:05:54.048Z,96023.72
2022-08-03T20:08:23.580Z,96035.78
2022-08-03T20:10:51.387Z,96027.88
2022-08-03T20:13:20.637Z,96027.25
2022-08-03T20:15:47.650Z,96033.59
2022-08-03T20:18:20.153Z,96031.75
2022-08-03T20:20:52.671Z,96034.56
2022-08-03T20:23:19.677Z,96033.03
2022-08-03T20:25:57.424Z,96035.91
2022-08-03T20:28:27.999Z,96031.56
2022-08-03T20:30:57.151Z,96034.63
2022-08-03T20:33:46.562Z,96031.41
2022-08-03T20:36:17.880Z,96034.00
2022-08-03T20:38:47.159Z,96027.25
2022-08-03T20:41:23.513Z,96025.66
2022-08-03T20:43:51.064Z,96028.50
2022-08-03T20:49:04.286Z,96029.81
2022-08-03T20:57:06.949Z,96033.50
2022-08-03T21:02:05.035Z,96035.03
2022-08-03T21:04:45.190Z,96038.66
2022-08-03T21:07:16.955Z,96037.91
2022-08-03T21:13:08.339Z,96006.59
2022-08-03T21:25:56.398Z,96047.94
2022-08-03T21:28:27.464Z,96043.63
2022-08-03T21:30:57.576Z,96042.72
2022-08-03T21:36:36.137Z,96045.28
2022-08-03T21:39:03.007Z,96049.69
2022-08-03T21:41:39.038Z,96051.91
2022-08-03T21:44:05.914Z,96054.47
2022-08-03T21:46:38.820Z,96052.88
2022-08-03T21:50:05.214Z,96062.94
2022-08-03T21:51:53.592Z,96057.56
2022-08-03T21:54:20.853Z,96053.97
2022-08-03T21:56:47.547Z,96063.69
2022-08-03T21:59:14.783Z,96059.03
2022-08-03T22:01:43.376Z,96058.72
2022-08-03T22:04:12.040Z,96065.88
2022-08-03T22:06:57.397Z,96076.88
2022-08-03T22:09:24.685Z,96070.22
2022-08-03T22:11:51.370Z,96075.03
2022-08-03T22:14:18.364Z,96066.22
2022-08-03T22:16:45.099Z,96073.50
2022-08-03T22:19:11.706Z,96077.34
2022-08-03T22:21:49.967Z,96065.41
2022-08-03T22:24:16.753Z,96083.63
2022-08-03T22:26:46.648Z,96083.28
2022-08-03T22:29:14.279Z,96082.25
2022-08-03T22:31:58.698Z,96080.50
2022-08-03T22:34:26.668Z,96083.72
2022-08-03T22:36:53.794Z,96091.19
2022-08-03T22:39:26.018Z,96098.50
2022-08-03T22:41:53.703Z,96089.69
2022-08-03T22:44:21.270Z,96095.78
2022-08-03T22:46:48.669Z,96093.06
2022-08-03T22:49:17.426Z,96094.88
2022-08-03T22:51:44.979Z,96096.00
2022-08-03T22:54:11.865Z,96090.00
2022-08-03T22:59:40.977Z,96087.09
2022-08-03T23:02:20.097Z,96096.56
2022-08-03T23:04:48.918Z,96092.81
2022-08-03T23:07:15.803Z,96095.13
2022-08-03T23:09:44.623Z,96093.34
2022-08-03T23:12:13.079Z,96094.44
2022-08-03T23:14:42.967Z,96095.25
2022-08-03T23:17:09.953Z,96093.22
2022-08-03T23:19:39.769Z,96100.34
2022-08-03T23:22:29.714Z,96101.81
2022-08-03T23:24:58.924Z,96095.81
2022-08-03T23:27:27.575Z,96092.38
2022-08-03T23:29:54.164Z,96095.31
2022-08-03T23:32:24.645Z,96095.69
2022-08-03T23:34:52.195Z,96099.56
2022-08-03T23:37:19.924Z,96104.94
2022-08-03T23:39:46.848Z,96103.72
2022-08-03T23:42:13.895Z,96104.09
2022-08-03T23:44:40.803Z,96104.66
2022-08-03T23:47:07.817Z,96107.22
2022-08-03T23:49:34.362Z,96106.31
2022-08-03T23:52:04.815Z,96104.88
2022-08-03T23:54:33.937Z,96106.53
2022-08-03T23:57:00.749Z,96104.75
2022-08-03T23:59:27.741Z,96101.50
